KBDE/BDE METAR and TAF weather

Enter ICAO airport designator
Station Type Date Time Source
KBDE METAR 2019/06/16 05:53 UTC NOAA

KBDE 160553Z AUTO 20008KT 10SM FEW060 BKN075 OVC090 14/08 A2990 RMK AO2 SLP126 T01440083 10172 20139 402000072 53003


Station Type Date Time Source
KBDE Decoded METAR 2019/06/16 05:53 UTC NOAA

BAUDETTE INTERNATIONAL AIRPORT, MN, United States (KBDE) 48-44N 94-37W 329M
Jun 16, 2019 - 01:53 AM EDT / 2019.06.16 0553 UTC
Wind: from the SSW (200 degrees) at 9 MPH (8 KT):0
Visibility: 10 mile(s):0
Sky conditions: overcast
Temperature: 57.9 F (14.4 C)
Dew Point: 46.9 F (8.3 C)
Relative Humidity: 66%
Pressure (altimeter): 29.9 in. Hg (1012 hPa)
Pressure tendency: 0.01 inches (0.3 hPa) higher than three hours ago
ob: KBDE 160553Z AUTO 20008KT 10SM FEW060 BKN075 OVC090 14/08 A2990 RMK AO2 SLP126 T01440083 10172 20139 402000072 53003
cycle: 6

Station Type Date Time Source
KBDE TAF UTC NOAA

Error!

Example: see airport list